| time (UTC) | temp F | wind direction | speed MPH | gust MPH | rain 1hr in | rain 24hr in | rain mn in | humidity % | barometer mb |
| 20260502170424 | 85 | 144 | 5.0 | 12.0 | 0.00 | 0.00 | 0.00 | 23 | 1018.2 |
| 20260502163907 | 84 | 133 | 4.0 | 11.0 | 0.00 | 0.00 | 0.00 | 22 | 1018.3 |
| 20260502163403 | 84 | 126 | 2.0 | 12.0 | 0.00 | 0.00 | 0.00 | 22 | 1018.2 |
| 20260502162901 | 84 | 66 | 3.0 | 14.0 | 0.00 | 0.00 | 0.00 | 21 | 1018.4 |
| 20260502162357 | 84 | 103 | 2.0 | 7.0 | 0.00 | 0.00 | 0.00 | 21 | 1018.1 |
| 20260502161854 | 83 | 99 | 4.0 | 10.0 | 0.00 | 0.00 | 0.00 | 20 | 1018.3 |
| 20260502161345 | 83 | 129 | 3.0 | 7.0 | 0.00 | 0.00 | 0.00 | 20 | 1018.2 |
| 20260502160843 | 83 | 131 | 9.0 | 12.0 | 0.00 | 0.00 | 0.00 | 20 | 1018.1 |
| 20260502160342 | 83 | 104 | 0.0 | 10.0 | 0.00 | 0.00 | 0.00 | 21 | 1018.3 |
| 20260502152317 | 81 | 127 | 2.0 | 7.0 | 0.00 | 0.00 | 0.00 | 21 | 1017.9 |
| 20260502151814 | 80 | 95 | 7.0 | 9.0 | 0.00 | 0.00 | 0.00 | 21 | 1017.7 |
| 20260502151311 | 79 | 156 | 1.0 | 9.0 | 0.00 | 0.00 | 0.00 | 22 | 1017.7 |
| 20260502150809 | 79 | 119 | 4.0 | 7.0 | 0.00 | 0.00 | 0.00 | 22 | 1017.8 |
| 20260502150305 | 79 | 47 | 2.0 | 6.0 | 0.00 | 0.00 | 0.00 | 23 | 1017.6 |
| 20260502130653 | 68 | 87 | 1.0 | 3.0 | 0.00 | 0.00 | 0.00 | 29 | 1016.4 |
| 20260502130151 | 67 | 358 | 1.0 | 3.0 | 0.00 | 0.00 | 0.00 | 29 | 1016.2 |
| 20260502123636 | 69 | 147 | 0.0 | 2.0 | 0.00 | 0.00 | 0.00 | 26 | 1016.0 |
| 20260502123133 | 69 | 49 | 1.0 | 2.0 | 0.00 | 0.00 | 0.00 | 26 | 1015.8 |
| 20260502122630 | 70 | 126 | 2.0 | 3.0 | 0.00 | 0.00 | 0.00 | 25 | 1015.7 |
| 20260502122126 | 70 | 104 | 0.0 | 3.0 | 0.00 | 0.00 | 0.00 | 26 | 1015.8 |
| 20260502121624 | 70 | 79 | 2.0 | 5.0 | 0.00 | 0.00 | 0.00 | 26 | 1015.7 |
| 20260502121121 | 70 | 141 | 1.0 | 2.0 | 0.00 | 0.00 | 0.00 | 26 | 1015.5 |
| 20260502120618 | 71 | 91 | 1.0 | 3.0 | 0.00 | 0.00 | 0.00 | 24 | 1015.7 |
| 20260502120115 | 71 | 313 | 2.0 | 5.0 | 0.00 | 0.00 | 0.00 | 24 | 1015.6 |
| 20260502115613 | 71 | 100 | 1.0 | 4.0 | 0.00 | 0.00 | 0.00 | 24 | 1015.7 |
| 20260502115108 | 71 | 50 | 0.0 | 3.0 | 0.00 | 0.00 | 0.00 | 24 | 1015.6 |
| 20260502114604 | 71 | 107 | 0.0 | 3.0 | 0.00 | 0.00 | 0.00 | 24 | 1015.5 |
| 20260502114102 | 72 | 140 | 0.0 | 6.0 | 0.00 | 0.00 | 0.00 | 23 | 1015.7 |
| 20260502113559 | 73 | 97 | 2.0 | 7.0 | 0.00 | 0.00 | 0.00 | 22 | 1015.5 |
| 20260502113057 | 73 | 80 | 3.0 | 6.0 | 0.00 | 0.00 | 0.00 | 22 | 1015.4 |
| 20260502112555 | 73 | 67 | 2.0 | 8.0 | 0.00 | 0.00 | 0.00 | 22 | 1015.3 |
| 20260502112053 | 73 | 85 | 2.0 | 6.0 | 0.00 | 0.00 | 0.00 | 23 | 1015.4 |
| 20260502111549 | 72 | 130 | 0.0 | 7.0 | 0.00 | 0.00 | 0.00 | 23 | 1015.5 |
| 20260502111047 | 73 | 81 | 2.0 | 5.0 | 0.00 | 0.00 | 0.00 | 23 | 1015.5 |
| 20260502110544 | 72 | 85 | 3.0 | 4.0 | 0.00 | 0.00 | 0.00 | 24 | 1015.3 |
| 20260502110042 | 72 | 79 | 2.0 | 3.0 | 0.00 | 0.00 | 0.00 | 23 | 1015.3 |
| 20260502105539 | 73 | 42 | 0.0 | 6.0 | 0.00 | 0.00 | 0.00 | 23 | 1015.5 |
| 20260502105037 | 73 | 83 | 5.0 | 7.0 | 0.00 | 0.00 | 0.00 | 23 | 1015.5 |
| 20260502104533 | 73 | 78 | 5.0 | 7.0 | 0.00 | 0.00 | 0.00 | 23 | 1015.6 |
| 20260502104031 | 72 | 118 | 2.0 | 6.0 | 0.00 | 0.00 | 0.00 | 24 | 1015.4 |
| 20260502103529 | 72 | 45 | 0.0 | 4.0 | 0.00 | 0.00 | 0.00 | 24 | 1015.4 |
| 20260502103026 | 73 | 260 | 0.0 | 4.0 | 0.00 | 0.00 | 0.00 | 24 | 1015.3 |
| 20260502102522 | 72 | 340 | 0.0 | 6.0 | 0.00 | 0.00 | 0.00 | 24 | 1015.4 |
| 20260502102020 | 73 | 330 | 0.0 | 3.0 | 0.00 | 0.00 | 0.00 | 24 | 1015.2 |
| 20260502101517 | 73 | 19 | 1.0 | 3.0 | 0.00 | 0.00 | 0.00 | 23 | 1015.2 |
| 20260502101016 | 73 | 221 | 0.0 | 4.0 | 0.00 | 0.00 | 0.00 | 23 | 1015.3 |
| 20260502100514 | 74 | 102 | 4.0 | 7.0 | 0.00 | 0.00 | 0.00 | 22 | 1015.2 |
| 20260502091448 | 76 | 92 | 4.0 | 8.0 | 0.00 | 0.00 | 0.00 | 22 | 1014.8 |
| 20260502090946 | 77 | 86 | 3.0 | 13.0 | 0.00 | 0.00 | 0.00 | 22 | 1014.9 |
| 20260502090442 | 76 | 106 | 4.0 | 14.0 | 0.00 | 0.00 | 0.00 | 22 | 1014.6 |
| 20260502071337 | 75 | 5 | 2.0 | 5.0 | 0.00 | 0.00 | 0.00 | 20 | 1014.5 |
| 20260502070835 | 76 | 332 | 5.0 | 11.0 | 0.00 | 0.00 | 0.00 | 19 | 1014.4 |
| 20260502070332 | 76 | 350 | 2.0 | 6.0 | 0.00 | 0.00 | 0.00 | 19 | 1014.2 |
| 20260502065831 | 76 | 345 | 3.0 | 7.0 | 0.00 | 0.00 | 0.00 | 18 | 1014.1 |
| 20260502065329 | 77 | 359 | 2.0 | 6.0 | 0.00 | 0.00 | 0.00 | 17 | 1014.0 |
| 20260502064827 | 77 | 337 | 5.0 | 7.0 | 0.00 | 0.00 | 0.00 | 18 | 1014.1 |
| 20260502064325 | 77 | 36 | 2.0 | 8.0 | 0.00 | 0.00 | 0.00 | 17 | 1014.3 |
| 20260502063821 | 78 | 338 | 3.0 | 8.0 | 0.00 | 0.00 | 0.00 | 16 | 1014.0 |
| 20260502063320 | 78 | 333 | 7.0 | 13.0 | 0.00 | 0.00 | 0.00 | 15 | 1013.9 |
| 20260502062816 | 78 | 331 | 5.0 | 10.0 | 0.00 | 0.00 | 0.00 | 15 | 1014.0 |
| 20260502062314 | 78 | 337 | 5.0 | 15.0 | 0.00 | 0.00 | 0.00 | 15 | 1014.0 |
| 20260502061812 | 79 | 294 | 9.0 | 13.0 | 0.00 | 0.00 | 0.00 | 15 | 1013.9 |
| 20260502061310 | 79 | 334 | 6.0 | 10.0 | 0.00 | 0.00 | 0.00 | 15 | 1013.6 |
| 20260502060805 | 80 | 299 | 3.0 | 12.0 | 0.00 | 0.00 | 0.00 | 15 | 1013.6 |
| 20260502060301 | 80 | 333 | 5.0 | 8.0 | 0.00 | 0.00 | 0.00 | 15 | 1013.5 |
| 20260502055759 | 80 | 269 | 3.0 | 10.0 | 0.00 | 0.00 | 0.00 | 16 | 1013.6 |
| 20260502055256 | 79 | 314 | 3.0 | 5.0 | 0.00 | 0.00 | 0.00 | 17 | 1013.5 |
| 20260502054755 | 80 | 295 | 2.0 | 6.0 | 0.00 | 0.00 | 0.00 | 17 | 1013.5 |
| 20260502054253 | 79 | 260 | 0.0 | 4.0 | 0.00 | 0.00 | 0.00 | 17 | 1013.6 |
| 20260502053750 | 80 | 230 | 0.0 | 5.0 | 0.00 | 0.00 | 0.00 | 18 | 1013.5 |
| 20260502053247 | 80 | 297 | 3.0 | 4.0 | 0.00 | 0.00 | 0.00 | 17 | 1013.5 |
| 20260502052745 | 82 | 278 | 3.0 | 5.0 | 0.00 | 0.00 | 0.00 | 16 | 1013.2 |
| 20260502052243 | 82 | 231 | 3.0 | 11.0 | 0.00 | 0.00 | 0.00 | 16 | 1013.3 |
| 20260502051740 | 83 | 246 | 4.0 | 13.0 | 0.00 | 0.00 | 0.00 | 17 | 1013.4 |
| 20260502051239 | 83 | 246 | 5.0 | 13.0 | 0.00 | 0.00 | 0.00 | 17 | 1013.4 |
| 20260502050735 | 80 | 328 | 2.0 | 6.0 | 0.00 | 0.00 | 0.00 | 20 | 1013.5 |
| 20260502050231 | 80 | 265 | 4.0 | 7.0 | 0.00 | 0.00 | 0.00 | 21 | 1013.3 |
| 20260502045728 | 80 | 255 | 1.0 | 5.0 | 0.00 | 0.00 | 0.00 | 21 | 1013.3 |
| 20260502045225 | 80 | 254 | 0.0 | 4.0 | 0.00 | 0.00 | 0.00 | 21 | 1013.3 |
| 20260502044722 | 80 | 264 | 0.0 | 5.0 | 0.00 | 0.00 | 0.00 | 21 | 1013.2 |
| 20260502044218 | 79 | 261 | 2.0 | 4.0 | 0.00 | 0.00 | 0.00 | 21 | 1013.3 |
| 20260502043716 | 80 | 257 | 2.0 | 2.0 | 0.00 | 0.00 | 0.00 | 22 | 1013.2 |
| 20260502043213 | 80 | 254 | 0.0 | 6.0 | 0.00 | 0.00 | 0.00 | 21 | 1013.1 |
| 20260502042712 | 80 | 228 | 2.0 | 6.0 | 0.00 | 0.00 | 0.00 | 22 | 1013.3 |
| 20260502042210 | 79 | 246 | 0.0 | 3.0 | 0.00 | 0.00 | 0.00 | 22 | 1013.1 |
| 20260502041708 | 79 | 235 | 0.0 | 3.0 | 0.00 | 0.00 | 0.00 | 22 | 1013.1 |
| 20260502041204 | 80 | 291 | 3.0 | 4.0 | 0.00 | 0.00 | 0.00 | 21 | 1013.2 |
| 20260502040701 | 80 | 266 | 1.0 | 2.0 | 0.00 | 0.00 | 0.00 | 22 | 1013.1 |
| 20260502040158 | 81 | 224 | 2.0 | 4.0 | 0.00 | 0.00 | 0.00 | 21 | 1012.9 |
| 20260502035654 | 82 | 205 | 0.0 | 5.0 | 0.00 | 0.00 | 0.00 | 20 | 1012.8 |
| 20260502035151 | 82 | 235 | 2.0 | 5.0 | 0.00 | 0.00 | 0.00 | 21 | 1012.7 |
| 20260502034649 | 82 | 224 | 4.0 | 5.0 | 0.00 | 0.00 | 0.00 | 20 | 1012.9 |
| 20260502034147 | 82 | 225 | 3.0 | 4.0 | 0.00 | 0.00 | 0.00 | 20 | 1012.7 |
| 20260502033645 | 82 | 230 | 2.0 | 5.0 | 0.00 | 0.00 | 0.00 | 20 | 1012.7 |
| 20260502033143 | 83 | 238 | 3.0 | 7.0 | 0.00 | 0.00 | 0.00 | 20 | 1012.5 |
| 20260502032639 | 83 | 219 | 3.0 | 7.0 | 0.00 | 0.00 | 0.00 | 19 | 1012.6 |
| 20260502032135 | 84 | 227 | 3.0 | 8.0 | 0.00 | 0.00 | 0.00 | 19 | 1012.6 |
| 20260502031633 | 84 | 225 | 3.0 | 8.0 | 0.00 | 0.00 | 0.00 | 19 | 1012.5 |
| 20260502031130 | 84 | 223 | 4.0 | 7.0 | 0.00 | 0.00 | 0.00 | 19 | 1012.4 |
| 20260502030629 | 84 | 229 | 6.0 | 9.0 | 0.00 | 0.00 | 0.00 | 19 | 1012.3 |
| 20260502030127 | 84 | 241 | 3.0 | 8.0 | 0.00 | 0.00 | 0.00 | 19 | 1012.4 |
| 20260502025624 | 84 | 225 | 6.0 | 10.0 | 0.00 | 0.00 | 0.00 | 19 | 1012.2 |
| 20260502025122 | 84 | 223 | 4.0 | 5.0 | 0.00 | 0.00 | 0.00 | 19 | 1012.2 |
| 20260502024619 | 85 | 230 | 5.0 | 9.0 | 0.00 | 0.00 | 0.00 | 19 | 1012.3 |
| 20260502024117 | 85 | 238 | 4.0 | 7.0 | 0.00 | 0.00 | 0.00 | 19 | 1012.1 |
| 20260502023615 | 85 | 220 | 3.0 | 6.0 | 0.00 | 0.00 | 0.00 | 18 | 1012.1 |
| 20260502023112 | 85 | 213 | 4.0 | 9.0 | 0.00 | 0.00 | 0.00 | 18 | 1012.0 |
| 20260502022609 | 86 | 228 | 8.0 | 10.0 | 0.00 | 0.00 | 0.00 | 18 | 1011.7 |
| 20260502022106 | 86 | 162 | 0.0 | 8.0 | 0.00 | 0.00 | 0.00 | 18 | 1011.7 |
| 20260502021603 | 86 | 210 | 5.0 | 10.0 | 0.00 | 0.00 | 0.00 | 17 | 1011.7 |
| 20260502021100 | 86 | 196 | 2.0 | 7.0 | 0.00 | 0.00 | 0.00 | 17 | 1011.5 |
| 20260502020557 | 86 | 182 | 4.0 | 11.0 | 0.00 | 0.00 | 0.00 | 17 | 1011.7 |
| 20260502020054 | 87 | 180 | 1.0 | 5.0 | 0.00 | 0.00 | 0.00 | 18 | 1011.4 |
| 20260502015552 | 87 | 182 | 3.0 | 8.0 | 0.00 | 0.00 | 0.00 | 18 | 1011.4 |
| 20260502015048 | 87 | 225 | 3.0 | 11.0 | 0.00 | 0.00 | 0.00 | 16 | 1011.4 |
| 20260502014545 | 88 | 209 | 5.0 | 8.0 | 0.00 | 0.00 | 0.00 | 17 | 1011.7 |
| 20260502014043 | 88 | 216 | 4.0 | 8.0 | 0.00 | 0.00 | 0.00 | 17 | 1011.4 |
| 20260502013538 | 88 | 224 | 2.0 | 8.0 | 0.00 | 0.00 | 0.00 | 16 | 1011.5 |
| 20260502013034 | 88 | 223 | 5.0 | 11.0 | 0.00 | 0.00 | 0.00 | 16 | 1011.4 |
| 20260502012532 | 89 | 198 | 1.0 | 5.0 | 0.00 | 0.00 | 0.00 | 17 | 1011.5 |
| 20260502012029 | 89 | 202 | 5.0 | 9.0 | 0.00 | 0.00 | 0.00 | 17 | 1011.5 |
| 20260502011526 | 89 | 168 | 3.0 | 6.0 | 0.00 | 0.00 | 0.00 | 17 | 1011.4 |
| 20260502011022 | 90 | 232 | 4.0 | 6.0 | 0.00 | 0.00 | 0.00 | 15 | 1011.1 |
| 20260502010520 | 90 | 227 | 6.0 | 7.0 | 0.00 | 0.00 | 0.00 | 15 | 1011.4 |
| 20260502010016 | 89 | 160 | 2.0 | 5.0 | 0.00 | 0.00 | 0.00 | 15 | 1011.6 |
| 20260502005514 | 89 | 138 | 2.0 | 6.0 | 0.00 | 0.00 | 0.00 | 17 | 1011.6 |
| 20260502005012 | 89 | 166 | 2.0 | 6.0 | 0.00 | 0.00 | 0.00 | 15 | 1011.5 |
| 20260502004507 | 91 | 206 | 3.0 | 7.0 | 0.00 | 0.00 | 0.00 | 15 | 1011.5 |
| 20260502004004 | 91 | 237 | 3.0 | 8.0 | 0.00 | 0.00 | 0.00 | 15 | 1011.6 |
| 20260502003502 | 89 | 298 | 0.0 | 3.0 | 0.00 | 0.00 | 0.00 | 16 | 1011.6 |
| 20260502002957 | 90 | 275 | 2.0 | 5.0 | 0.00 | 0.00 | 0.00 | 15 | 1011.7 |
| 20260502002455 | 90 | 312 | 2.0 | 8.0 | 0.00 | 0.00 | 0.00 | 16 | 1011.7 |
| 20260502001952 | 91 | 289 | 3.0 | 9.0 | 0.00 | 0.00 | 0.00 | 16 | 1011.8 |
| 20260502001449 | 92 | 328 | 4.0 | 6.0 | 0.00 | 0.00 | 0.00 | 15 | 1011.7 |
| 20260502000948 | 91 | 316 | 3.0 | 9.0 | 0.00 | 0.00 | 0.00 | 17 | 1011.6 |
| 20260502000447 | 91 | 249 | 3.0 | 10.0 | 0.00 | 0.00 | 0.00 | 17 | 1011.8 |
| 20260501235941 | 89 | 203 | 6.0 | 12.0 | 0.00 | 0.00 | 0.00 | 19 | 1011.8 |
| 20260501235437 | 90 | 130 | 6.0 | 7.0 | 0.00 | 0.00 | 0.00 | 19 | 1011.8 |
| 20260501234932 | 89 | 145 | 2.0 | 7.0 | 0.00 | 0.00 | 0.00 | 19 | 1011.7 |
| 20260501234429 | 90 | 204 | 4.0 | 9.0 | 0.00 | 0.00 | 0.00 | 19 | 1012.1 |
| 20260501233928 | 91 | 236 | 3.0 | 6.0 | 0.00 | 0.00 | 0.00 | 19 | 1011.8 |
| 20260501233425 | 89 | 238 | 6.0 | 15.0 | 0.00 | 0.00 | 0.00 | 20 | 1011.8 |
| 20260501232920 | 91 | 159 | 0.0 | 5.0 | 0.00 | 0.00 | 0.00 | 19 | 1012.1 |
| 20260501232418 | 91 | 233 | 4.0 | 6.0 | 0.00 | 0.00 | 0.00 | 18 | 1012.0 |
| 20260501231915 | 90 | 253 | 2.0 | 13.0 | 0.00 | 0.00 | 0.00 | 20 | 1011.7 |
| 20260501231414 | 89 | 162 | 4.0 | 7.0 | 0.00 | 0.00 | 0.00 | 20 | 1012.1 |
| 20260501230912 | 90 | 238 | 2.0 | 5.0 | 0.00 | 0.00 | 0.00 | 20 | 1012.1 |
| 20260501230410 | 90 | 252 | 3.0 | 11.0 | 0.00 | 0.00 | 0.00 | 20 | 1012.1 |
| 20260501225907 | 89 | 217 | 5.0 | 12.0 | 0.00 | 0.00 | 0.00 | 21 | 1012.2 |
| 20260501225404 | 89 | 224 | 5.0 | 11.0 | 0.00 | 0.00 | 0.00 | 21 | 1012.2 |
| 20260501224900 | 89 | 121 | 0.0 | 6.0 | 0.00 | 0.00 | 0.00 | 21 | 1012.3 |
| 20260501224358 | 89 | 217 | 4.0 | 7.0 | 0.00 | 0.00 | 0.00 | 21 | 1012.3 |
| 20260501223854 | 89 | 226 | 7.0 | 11.0 | 0.00 | 0.00 | 0.00 | 21 | 1012.5 |
| 20260501223350 | 88 | 235 | 5.0 | 9.0 | 0.00 | 0.00 | 0.00 | 21 | 1012.5 |
| 20260501222846 | 90 | 257 | 3.0 | 17.0 | 0.00 | 0.00 | 0.00 | 21 | 1012.4 |
| 20260501222344 | 91 | 262 | 5.0 | 10.0 | 0.00 | 0.00 | 0.00 | 21 | 1012.5 |
| 20260501221840 | 90 | 184 | 0.0 | 4.0 | 0.00 | 0.00 | 0.00 | 21 | 1012.7 |
| 20260501221338 | 91 | 254 | 4.0 | 6.0 | 0.00 | 0.00 | 0.00 | 21 | 1012.7 |
| 20260501220836 | 88 | 245 | 3.0 | 7.0 | 0.00 | 0.00 | 0.00 | 22 | 1012.9 |
| 20260501220333 | 90 | 230 | 4.0 | 11.0 | 0.00 | 0.00 | 0.00 | 21 | 1012.8 |
| 20260501215829 | 91 | 339 | 3.0 | 6.0 | 0.00 | 0.00 | 0.00 | 21 | 1012.9 |
| 20260501215326 | 89 | 336 | 3.0 | 7.0 | 0.00 | 0.00 | 0.00 | 21 | 1013.0 |
| 20260501214821 | 89 | 319 | 4.0 | 7.0 | 0.00 | 0.00 | 0.00 | 21 | 1013.3 |
| 20260501214317 | 88 | 297 | 2.0 | 4.0 | 0.00 | 0.00 | 0.00 | 22 | 1013.6 |
| 20260501213813 | 87 | 220 | 4.0 | 8.0 | 0.00 | 0.00 | 0.00 | 22 | 1013.4 |
| 20260501213309 | 89 | 349 | 6.0 | 9.0 | 0.00 | 0.00 | 0.00 | 21 | 1013.7 |
| 20260501212805 | 86 | 139 | 4.0 | 5.0 | 0.00 | 0.00 | 0.00 | 22 | 1013.4 |
| 20260501212305 | 87 | 238 | 4.0 | 7.0 | 0.00 | 0.00 | 0.00 | 22 | 1013.5 |
| 20260501211759 | 88 | 269 | 3.0 | 8.0 | 0.00 | 0.00 | 0.00 | 21 | 1013.7 |
| 20260501211256 | 87 | 198 | 1.0 | 15.0 | 0.00 | 0.00 | 0.00 | 22 | 1013.7 |
| 20260501210753 | 87 | 224 | 5.0 | 13.0 | 0.00 | 0.00 | 0.00 | 22 | 1013.8 |
| 20260501210250 | 87 | 211 | 3.0 | 6.0 | 0.00 | 0.00 | 0.00 | 22 | 1014.0 |
| 20260501205746 | 85 | 135 | 4.0 | 5.0 | 0.00 | 0.00 | 0.00 | 22 | 1013.9 |
| 20260501205243 | 86 | 143 | 1.0 | 6.0 | 0.00 | 0.00 | 0.00 | 22 | 1014.0 |
| 20260501204740 | 86 | 139 | 4.0 | 7.0 | 0.00 | 0.00 | 0.00 | 21 | 1014.1 |
| 20260501204237 | 86 | 183 | 3.0 | 8.0 | 0.00 | 0.00 | 0.00 | 21 | 1014.4 |
| 20260501203733 | 87 | 84 | 0.0 | 9.0 | 0.00 | 0.00 | 0.00 | 21 | 1014.1 |
| 20260501203231 | 86 | 239 | 5.0 | 6.0 | 0.00 | 0.00 | 0.00 | 21 | 1014.2 |
| 20260501202727 | 86 | 223 | 2.0 | 6.0 | 0.00 | 0.00 | 0.00 | 21 | 1014.4 |
| 20260501202224 | 84 | 149 | 3.0 | 6.0 | 0.00 | 0.00 | 0.00 | 22 | 1014.6 |
| 20260501201721 | 85 | 230 | 7.0 | 11.0 | 0.00 | 0.00 | 0.00 | 22 | 1014.6 |
| 20260501201218 | 85 | 245 | 5.0 | 8.0 | 0.00 | 0.00 | 0.00 | 22 | 1014.4 |
| 20260501200715 | 84 | 238 | 2.0 | 4.0 | 0.00 | 0.00 | 0.00 | 22 | 1014.5 |
| 20260501200212 | 84 | 273 | 5.0 | 7.0 | 0.00 | 0.00 | 0.00 | 23 | 1014.5 |
| 20260501195709 | 84 | 264 | 3.0 | 5.0 | 0.00 | 0.00 | 0.00 | 22 | 1014.6 |
| 20260501195205 | 83 | 230 | 5.0 | 11.0 | 0.00 | 0.00 | 0.00 | 24 | 1014.9 |
| 20260501194701 | 84 | 250 | 2.0 | 8.0 | 0.00 | 0.00 | 0.00 | 23 | 1014.8 |
| 20260501194156 | 83 | 258 | 4.0 | 11.0 | 0.00 | 0.00 | 0.00 | 23 | 1015.0 |
| 20260501193653 | 83 | 226 | 2.0 | 9.0 | 0.00 | 0.00 | 0.00 | 24 | 1014.9 |
| 20260501193152 | 82 | 148 | 1.0 | 5.0 | 0.00 | 0.00 | 0.00 | 25 | 1015.0 |
| 20260501192649 | 83 | 151 | 3.0 | 8.0 | 0.00 | 0.00 | 0.00 | 24 | 1015.2 |
| 20260501192147 | 83 | 310 | 4.0 | 6.0 | 0.00 | 0.00 | 0.00 | 25 | 1015.3 |
| 20260501191644 | 82 | 231 | 11.0 | 16.0 | 0.00 | 0.00 | 0.00 | 25 | 1015.2 |
| 20260501191141 | 81 | 227 | 6.0 | 12.0 | 0.00 | 0.00 | 0.00 | 26 | 1015.3 |
| 20260501190637 | 82 | 138 | 1.0 | 7.0 | 0.00 | 0.00 | 0.00 | 27 | 1015.4 |
| 20260501190132 | 82 | 221 | 6.0 | 8.0 | 0.00 | 0.00 | 0.00 | 25 | 1015.4 |
| 20260501185629 | 82 | 221 | 3.0 | 5.0 | 0.00 | 0.00 | 0.00 | 26 | 1015.4 |
| 20260501185124 | 81 | 235 | 4.0 | 9.0 | 0.00 | 0.00 | 0.00 | 26 | 1015.5 |
| 20260501184621 | 81 | 247 | 3.0 | 6.0 | 0.00 | 0.00 | 0.00 | 27 | 1015.5 |
| 20260501184115 | 82 | 206 | 5.0 | 9.0 | 0.00 | 0.00 | 0.00 | 25 | 1015.8 |
| 20260501183612 | 82 | 226 | 5.0 | 9.0 | 0.00 | 0.00 | 0.00 | 26 | 1015.7 |
| 20260501183109 | 82 | 89 | 0.0 | 5.0 | 0.00 | 0.00 | 0.00 | 28 | 1015.9 |
| 20260501182606 | 80 | 73 | 4.0 | 6.0 | 0.00 | 0.00 | 0.00 | 29 | 1015.7 |
| 20260501182103 | 80 | 111 | 2.0 | 11.0 | 0.00 | 0.00 | 0.00 | 28 | 1016.0 |
| 20260501181600 | 81 | 92 | 5.0 | 7.0 | 0.00 | 0.00 | 0.00 | 28 | 1016.1 |
| 20260501181056 | 80 | 248 | 2.0 | 8.0 | 0.00 | 0.00 | 0.00 | 28 | 1016.0 |
| 20260501180555 | 79 | 210 | 7.0 | 9.0 | 0.00 | 0.00 | 0.00 | 28 | 1016.0 |
| 20260501180050 | 80 | 129 | 5.0 | 9.0 | 0.00 | 0.00 | 0.00 | 29 | 1016.1 |
| 20260501175547 | 78 | 137 | 5.0 | 10.0 | 0.00 | 0.00 | 0.00 | 30 | 1016.2 |
| 20260501175044 | 80 | 137 | 6.0 | 8.0 | 0.00 | 0.00 | 0.00 | 28 | 1016.2 |
| 20260501174541 | 80 | 142 | 5.0 | 9.0 | 0.00 | 0.00 | 0.00 | 29 | 1016.3 |
| 20260501174039 | 79 | 145 | 5.0 | 9.0 | 0.00 | 0.00 | 0.00 | 30 | 1016.4 |
| 20260501173536 | 80 | 186 | 3.0 | 5.0 | 0.00 | 0.00 | 0.00 | 30 | 1016.4 |
| 20260501173033 | 78 | 239 | 2.0 | 11.0 | 0.00 | 0.00 | 0.00 | 31 | 1016.3 |
| 20260501172528 | 78 | 314 | 2.0 | 6.0 | 0.00 | 0.00 | 0.00 | 30 | 1016.4 |
| 20260501172024 | 79 | 133 | 4.0 | 7.0 | 0.00 | 0.00 | 0.00 | 30 | 1016.3 |